createdAt,value
2023-02-03T00:00:34.755Z,99.99
2023-02-03T00:01:34.785Z,99.99
2023-02-03T00:02:34.733Z,99.99
2023-02-03T00:03:34.735Z,99.99
2023-02-03T00:04:34.711Z,99.99
2023-02-03T00:05:34.696Z,99.99
2023-02-03T00:06:34.684Z,99.99
2023-02-03T00:07:34.674Z,99.99
2023-02-03T00:08:34.673Z,99.99
2023-02-03T00:09:34.660Z,99.99
2023-02-03T00:10:34.624Z,99.99
2023-02-03T00:11:34.622Z,99.99
2023-02-03T00:12:34.615Z,99.99
2023-02-03T00:13:34.613Z,99.99
2023-02-03T00:14:34.582Z,99.99
2023-02-03T00:15:34.582Z,99.99
2023-02-03T00:16:34.593Z,99.99
2023-02-03T00:17:34.542Z,99.99
2023-02-03T00:18:34.559Z,99.99
2023-02-03T00:19:34.528Z,99.99
2023-02-03T00:20:34.508Z,99.99
2023-02-03T00:21:34.510Z,99.99
2023-02-03T00:22:34.480Z,99.99
2023-02-03T00:23:34.487Z,99.99
2023-02-03T00:24:34.454Z,99.99
2023-02-03T00:25:34.443Z,99.99
2023-02-03T00:26:34.430Z,99.99
2023-02-03T00:27:34.420Z,99.99
2023-02-03T00:28:34.543Z,99.99
2023-02-03T00:29:34.401Z,99.99
2023-02-03T00:30:34.379Z,99.99
2023-02-03T00:31:34.487Z,99.99
2023-02-03T00:32:34.394Z,99.99
2023-02-03T00:33:34.359Z,99.99
2023-02-03T00:34:34.328Z,99.99
2023-02-03T00:35:34.321Z,99.99
2023-02-03T00:36:34.309Z,99.99
2023-02-03T00:37:34.290Z,99.99
2023-02-03T00:38:34.289Z,99.99
2023-02-03T00:39:34.270Z,99.99
2023-02-03T00:40:34.248Z,99.99
2023-02-03T00:41:34.242Z,99.99
2023-02-03T00:42:34.227Z,99.99
2023-02-03T00:43:34.239Z,99.99
2023-02-03T00:44:34.211Z,99.99
2023-02-03T00:45:34.231Z,99.99
2023-02-03T00:46:34.186Z,99.99
2023-02-03T00:47:34.169Z,99.99
2023-02-03T00:48:34.172Z,99.99
2023-02-03T00:49:34.149Z,99.99
2023-02-03T00:50:34.116Z,99.99
2023-02-03T00:51:34.116Z,99.99
2023-02-03T00:52:34.100Z,99.99
2023-02-03T00:53:34.105Z,99.99
2023-02-03T00:54:34.076Z,99.99
2023-02-03T00:55:34.073Z,99.99
2023-02-03T00:56:34.046Z,99.99
2023-02-03T00:57:34.036Z,99.99
2023-02-03T00:58:34.039Z,99.99
2023-02-03T00:59:34.017Z,99.99
2023-02-03T01:00:33.989Z,99.99
2023-02-03T01:01:41.494Z,99.99
2023-02-03T01:02:41.049Z,99.99
2023-02-03T01:03:40.972Z,99.99
2023-02-03T01:04:40.950Z,99.99
2023-02-03T01:05:41.443Z,99.99
2023-02-03T01:06:41.425Z,99.99
2023-02-03T01:07:33.912Z,99.99
2023-02-03T01:08:33.911Z,99.99
2023-02-03T01:09:33.882Z,99.99
2023-02-03T01:10:33.868Z,99.99
2023-02-03T01:11:33.860Z,99.99
2023-02-03T01:12:33.841Z,99.99
2023-02-03T01:13:33.852Z,99.99
2023-02-03T01:14:33.820Z,99.99
2023-02-03T01:15:33.822Z,99.99
2023-02-03T01:16:33.852Z,99.99
2023-02-03T01:17:33.834Z,99.99
2023-02-03T01:18:33.841Z,99.99
2023-02-03T01:19:33.762Z,99.99
2023-02-03T01:20:33.740Z,99.99
2023-02-03T01:21:33.728Z,99.99
2023-02-03T01:22:33.720Z,99.99
2023-02-03T01:23:33.728Z,99.99
2023-02-03T01:24:33.689Z,99.99
2023-02-03T01:25:33.679Z,99.99
2023-02-03T01:26:33.670Z,99.99
2023-02-03T01:27:33.673Z,99.99
2023-02-03T01:28:33.648Z,99.99
2023-02-03T01:29:33.628Z,99.99
2023-02-03T01:30:33.662Z,99.99
2023-02-03T01:31:33.723Z,99.99
2023-02-03T01:32:33.590Z,99.99
2023-02-03T01:33:33.587Z,99.99
2023-02-03T01:34:33.647Z,99.99
2023-02-03T01:35:33.562Z,99.99
2023-02-03T01:36:33.535Z,99.99
2023-02-03T01:37:33.541Z,99.99
2023-02-03T01:38:33.546Z,99.99
2023-02-03T01:39:33.500Z,99.99
2023-02-03T01:40:33.490Z,99.99
2023-02-03T01:41:33.475Z,99.99
2023-02-03T01:42:33.475Z,99.99
2023-02-03T01:43:33.475Z,99.99
2023-02-03T01:44:33.442Z,99.99
2023-02-03T01:45:33.425Z,99.99
2023-02-03T01:46:33.413Z,99.99
2023-02-03T01:47:33.414Z,99.99
2023-02-03T01:48:33.395Z,99.99
2023-02-03T01:49:33.375Z,99.99
2023-02-03T01:50:33.362Z,99.99
2023-02-03T01:51:33.354Z,99.99
2023-02-03T01:52:33.324Z,99.99
2023-02-03T01:53:33.345Z,99.99
2023-02-03T01:54:40.871Z,99.99
2023-02-03T01:55:33.310Z,99.99
2023-02-03T01:56:33.293Z,99.99
2023-02-03T01:57:33.285Z,99.99
2023-02-03T01:58:33.274Z,99.99
2023-02-03T01:59:33.260Z,99.99
2023-02-03T02:00:33.235Z,99.99
2023-02-03T02:01:33.263Z,99.99
2023-02-03T02:02:33.319Z,99.99
2023-02-03T02:03:33.193Z,99.99
2023-02-03T02:04:33.203Z,99.99
2023-02-03T02:05:54.168Z,99.99
2023-02-03T02:06:33.164Z,99.99
2023-02-03T02:07:33.135Z,99.99
2023-02-03T02:08:33.132Z,99.99
2023-02-03T02:09:33.131Z,99.99
2023-02-03T02:10:33.112Z,99.99
2023-02-03T02:11:33.092Z,99.99
2023-02-03T02:12:33.091Z,99.99
2023-02-03T02:13:33.078Z,99.99
2023-02-03T02:14:33.062Z,99.99
2023-02-03T02:15:33.067Z,99.99
2023-02-03T02:16:33.044Z,99.99
2023-02-03T02:17:33.022Z,99.99
2023-02-03T02:18:33.004Z,99.99
2023-02-03T02:19:33.017Z,99.99
2023-02-03T02:20:32.973Z,99.99
2023-02-03T02:21:32.970Z,99.99
2023-02-03T02:22:32.952Z,99.99
2023-02-03T02:23:32.940Z,99.99
2023-02-03T02:24:32.932Z,99.99
2023-02-03T02:25:32.921Z,99.99
2023-02-03T02:26:32.898Z,99.99
2023-02-03T02:27:32.897Z,99.99
2023-02-03T02:28:32.889Z,99.99
2023-02-03T02:29:32.870Z,99.99
2023-02-03T02:30:32.855Z,99.99
2023-02-03T02:31:32.959Z,99.99
2023-02-03T02:32:47.638Z,99.99
2023-02-03T02:33:32.811Z,99.99
2023-02-03T02:34:32.800Z,99.99
2023-02-03T02:35:32.789Z,99.99
2023-02-03T02:36:32.776Z,99.99
2023-02-03T02:37:32.750Z,99.99
2023-02-03T02:38:32.740Z,99.99
2023-02-03T02:39:32.754Z,99.99
2023-02-03T02:40:32.716Z,99.99
2023-02-03T02:41:32.717Z,99.99
2023-02-03T02:42:32.688Z,99.99
2023-02-03T02:43:32.676Z,99.99
2023-02-03T02:44:32.677Z,99.99
2023-02-03T02:45:32.658Z,99.99
2023-02-03T02:46:32.678Z,99.99
2023-02-03T02:47:32.638Z,99.99
2023-02-03T02:48:32.614Z,99.99
2023-02-03T02:49:32.616Z,99.99
2023-02-03T02:50:32.588Z,99.99
2023-02-03T02:51:32.592Z,99.99
2023-02-03T02:52:32.573Z,99.99
2023-02-03T02:53:32.578Z,99.99
2023-02-03T02:54:32.547Z,99.99
2023-02-03T02:55:32.536Z,99.99
2023-02-03T02:56:32.523Z,99.99
2023-02-03T02:57:32.505Z,99.99
2023-02-03T02:58:32.501Z,99.99
2023-02-03T02:59:32.493Z,99.99
2023-02-03T03:00:32.463Z,99.99
2023-02-03T03:01:32.506Z,99.99
2023-02-03T03:02:32.424Z,99.99
2023-02-03T03:03:32.424Z,99.99
2023-02-03T03:04:32.464Z,99.99
2023-02-03T03:05:32.399Z,99.99
2023-02-03T03:06:32.392Z,99.99
2023-02-03T03:07:32.363Z,99.99
2023-02-03T03:08:32.359Z,99.99
2023-02-03T03:09:32.362Z,99.99
2023-02-03T03:10:32.373Z,99.99
2023-02-03T03:11:32.333Z,99.99
2023-02-03T03:12:32.306Z,99.99
2023-02-03T03:13:32.295Z,99.99
2023-02-03T03:14:32.307Z,99.99
2023-02-03T03:15:32.313Z,99.99
2023-02-03T03:16:32.259Z,99.99
2023-02-03T03:17:32.278Z,99.99
2023-02-03T03:18:32.246Z,99.99
2023-02-03T03:19:32.234Z,99.99
2023-02-03T03:20:32.201Z,99.99
2023-02-03T03:21:32.229Z,99.99
2023-02-03T03:22:32.192Z,99.99
2023-02-03T03:23:32.170Z,99.99
2023-02-03T03:24:32.162Z,99.99
2023-02-03T03:25:32.131Z,99.99
2023-02-03T03:26:32.126Z,99.99
2023-02-03T03:27:32.112Z,99.99
2023-02-03T03:28:32.101Z,99.99
2023-02-03T03:29:32.121Z,99.99
2023-02-03T03:30:32.082Z,99.99
2023-02-03T03:31:32.222Z,99.99
2023-02-03T03:32:32.041Z,99.99
2023-02-03T03:33:32.029Z,99.99
2023-02-03T03:34:32.112Z,99.99
2023-02-03T03:35:32.914Z,99.99
2023-02-03T03:36:32.074Z,99.99
2023-02-03T03:37:32.105Z,99.99
2023-02-03T03:38:32.096Z,99.99
2023-02-03T03:39:32.093Z,99.99
2023-02-03T03:40:32.069Z,99.99
2023-02-03T03:41:31.947Z,99.99
2023-02-03T03:42:32.158Z,99.99
2023-02-03T03:43:31.910Z,99.99
2023-02-03T03:44:31.912Z,99.99
2023-02-03T03:45:31.894Z,99.99
2023-02-03T03:46:31.907Z,99.82
2023-02-03T03:47:31.858Z,99.82
2023-02-03T03:48:31.832Z,99.99
2023-02-03T03:49:31.846Z,99.82
2023-02-03T03:50:31.807Z,99.99
2023-02-03T03:51:31.787Z,99.99
2023-02-03T03:52:31.779Z,99.82
2023-02-03T03:53:31.769Z,99.93
2023-02-03T03:54:31.764Z,99.99
2023-02-03T03:55:31.738Z,99.99
2023-02-03T03:56:31.727Z,99.99
2023-02-03T03:57:31.740Z,99.99
2023-02-03T03:58:31.737Z,99.99
2023-02-03T03:59:31.715Z,99.99
2023-02-03T04:00:31.678Z,99.97
2023-02-03T04:01:31.811Z,99.51
2023-02-03T04:02:31.739Z,99.93
2023-02-03T04:03:31.694Z,99.99
2023-02-03T04:04:31.636Z,99.77
2023-02-03T04:05:31.625Z,99.72
2023-02-03T04:06:31.605Z,99.99
2023-02-03T04:07:31.585Z,99.99
2023-02-03T04:08:31.576Z,99.99
2023-02-03T04:09:31.589Z,99.99
2023-02-03T04:10:31.562Z,99.99
2023-02-03T04:11:31.543Z,99.99
2023-02-03T04:12:31.523Z,99.99
2023-02-03T04:13:31.512Z,99.66
2023-02-03T04:14:31.546Z,99.10
2023-02-03T04:15:31.483Z,99.51
2023-02-03T04:16:31.489Z,99.51
2023-02-03T04:17:31.464Z,99.56
2023-02-03T04:18:31.460Z,99.97
2023-02-03T04:19:31.457Z,99.97
2023-02-03T04:20:31.416Z,99.99
2023-02-03T04:21:31.421Z,99.99
2023-02-03T04:22:31.386Z,99.99
2023-02-03T04:23:31.371Z,99.25
2023-02-03T04:24:31.381Z,99.77
2023-02-03T04:25:31.354Z,99.31
2023-02-03T04:26:31.334Z,99.56
2023-02-03T04:27:31.333Z,99.77
2023-02-03T04:28:31.301Z,99.66
2023-02-03T04:29:31.320Z,99.77
2023-02-03T04:30:31.292Z,99.56
2023-02-03T04:31:31.352Z,98.69
2023-02-03T04:32:31.240Z,98.69
2023-02-03T04:33:31.252Z,98.94
2023-02-03T04:34:31.240Z,99.00
2023-02-03T04:35:31.217Z,98.84
2023-02-03T04:36:31.212Z,98.38
2023-02-03T04:37:31.220Z,97.97
2023-02-03T04:38:31.171Z,98.07
2023-02-03T04:39:31.190Z,98.28
2023-02-03T04:40:32.954Z,98.38
2023-02-03T04:41:31.137Z,98.49
2023-02-03T04:42:31.122Z,97.87
2023-02-03T04:43:31.121Z,97.97
2023-02-03T04:44:31.119Z,97.97
2023-02-03T04:45:31.110Z,97.45
2023-02-03T04:46:31.094Z,97.05
2023-02-03T04:47:31.081Z,97.56
2023-02-03T04:48:31.048Z,97.25
2023-02-03T04:49:31.055Z,96.84
2023-02-03T04:50:31.019Z,96.28
2023-02-03T04:51:31.029Z,96.18
2023-02-03T04:52:31.019Z,96.18
2023-02-03T04:53:30.992Z,96.28
2023-02-03T04:54:31.028Z,96.59
2023-02-03T04:55:30.968Z,96.73
2023-02-03T04:56:30.938Z,96.73
2023-02-03T04:57:30.943Z,97.15
2023-02-03T04:58:30.928Z,97.25
2023-02-03T04:59:30.898Z,96.94
2023-02-03T05:00:31.033Z,97.05
2023-02-03T05:01:30.892Z,97.25
2023-02-03T05:02:30.866Z,96.94
2023-02-03T05:03:30.918Z,96.48
2023-02-03T05:04:30.846Z,96.80
2023-02-03T05:05:30.858Z,96.73
2023-02-03T05:06:30.814Z,97.15
2023-02-03T05:07:30.806Z,97.15
2023-02-03T05:08:30.864Z,97.05
2023-02-03T05:09:30.776Z,96.73
2023-02-03T05:10:30.780Z,96.39
2023-02-03T05:11:30.748Z,96.69
2023-02-03T05:12:30.733Z,96.59
2023-02-03T05:13:30.725Z,96.69
2023-02-03T05:14:30.709Z,97.10
2023-02-03T05:15:30.731Z,96.80
2023-02-03T05:16:30.767Z,96.08
2023-02-03T05:17:30.706Z,96.59
2023-02-03T05:18:30.668Z,97.00
2023-02-03T05:19:30.648Z,96.69
2023-02-03T05:20:30.652Z,96.80
2023-02-03T05:21:30.617Z,96.80
2023-02-03T05:22:30.632Z,96.48
2023-02-03T05:23:30.596Z,96.90
2023-02-03T05:24:30.595Z,95.97
2023-02-03T05:25:30.595Z,95.77
2023-02-03T05:26:30.650Z,95.67
2023-02-03T05:27:30.535Z,95.67
2023-02-03T05:28:30.535Z,95.77
2023-02-03T05:29:30.527Z,95.36
2023-02-03T05:30:30.851Z,95.67
2023-02-03T05:31:30.583Z,95.56
2023-02-03T05:32:30.489Z,95.46
2023-02-03T05:33:30.472Z,95.21
2023-02-03T05:34:30.452Z,95.56
2023-02-03T05:35:30.461Z,96.18
2023-02-03T05:36:30.438Z,95.10
2023-02-03T05:37:30.434Z,95.10
2023-02-03T05:38:30.405Z,95.56
2023-02-03T05:39:30.393Z,95.25
2023-02-03T05:40:30.485Z,95.25
2023-02-03T05:41:30.395Z,95.77
2023-02-03T05:42:30.353Z,95.97
2023-02-03T05:43:30.356Z,95.67
2023-02-03T05:44:30.343Z,95.21
2023-02-03T05:45:30.372Z,95.21
2023-02-03T05:46:30.301Z,94.95
2023-02-03T05:47:30.288Z,94.80
2023-02-03T05:48:30.283Z,94.49
2023-02-03T05:49:30.270Z,94.90
2023-02-03T05:50:30.258Z,95.36
2023-02-03T05:51:30.242Z,95.77
2023-02-03T05:52:30.262Z,96.08
2023-02-03T05:53:30.210Z,96.18
2023-02-03T05:54:30.194Z,96.08
2023-02-03T05:55:30.218Z,95.46
2023-02-03T05:56:30.179Z,95.25
2023-02-03T05:57:32.207Z,95.25
2023-02-03T05:58:30.152Z,95.25
2023-02-03T05:59:30.129Z,94.39
2023-02-03T06:00:30.251Z,94.70
2023-02-03T06:01:30.127Z,94.39
2023-02-03T06:02:30.090Z,94.70
2023-02-03T06:03:30.156Z,94.80
2023-02-03T06:04:30.138Z,94.49
2023-02-03T06:05:30.080Z,94.29
2023-02-03T06:06:30.065Z,94.59
2023-02-03T06:07:30.030Z,95.01
2023-02-03T06:08:30.009Z,95.05
2023-02-03T06:09:29.997Z,94.90
2023-02-03T06:10:30.225Z,94.59
2023-02-03T06:11:29.969Z,94.59
2023-02-03T06:12:29.950Z,94.59
2023-02-03T06:13:29.970Z,94.18
2023-02-03T06:14:29.950Z,94.90
2023-02-03T06:15:29.935Z,94.80
2023-02-03T06:16:29.997Z,94.90
2023-02-03T06:17:29.904Z,95.15
2023-02-03T06:18:29.898Z,95.05
2023-02-03T06:19:29.897Z,95.05
2023-02-03T06:20:30.140Z,94.80
2023-02-03T06:21:29.867Z,94.08
2023-02-03T06:22:29.837Z,94.59
2023-02-03T06:23:29.836Z,94.70
2023-02-03T06:24:29.822Z,94.80
2023-02-03T06:25:29.836Z,94.80
2023-02-03T06:26:29.800Z,94.80
2023-02-03T06:27:29.771Z,94.80
2023-02-03T06:28:29.764Z,95.10
2023-02-03T06:29:29.744Z,95.01
2023-02-03T06:30:30.118Z,95.21
2023-02-03T06:31:29.801Z,95.01
2023-02-03T06:32:29.711Z,95.10
2023-02-03T06:33:29.689Z,94.59
2023-02-03T06:34:29.697Z,95.10
2023-02-03T06:35:29.706Z,94.80
2023-02-03T06:36:29.657Z,95.10
2023-02-03T06:37:29.642Z,95.42
2023-02-03T06:38:29.626Z,95.52
2023-02-03T06:39:29.625Z,95.93
2023-02-03T06:40:30.230Z,96.28
2023-02-03T06:41:29.618Z,96.28
2023-02-03T06:42:29.639Z,96.39
2023-02-03T06:43:29.560Z,96.03
2023-02-03T06:44:29.563Z,95.83
2023-02-03T06:45:29.545Z,95.83
2023-02-03T06:46:29.570Z,95.93
2023-02-03T06:47:29.523Z,96.14
2023-02-03T06:48:29.505Z,96.23
2023-02-03T06:49:29.487Z,96.44
2023-02-03T06:50:29.859Z,96.59
2023-02-03T06:51:29.449Z,96.55
2023-02-03T06:52:29.447Z,97.10
2023-02-03T06:53:29.429Z,97.10
2023-02-03T06:54:29.445Z,97.20
2023-02-03T06:55:29.418Z,97.20
2023-02-03T06:56:29.396Z,97.31
2023-02-03T06:57:29.391Z,97.72
2023-02-03T06:58:29.362Z,97.52
2023-02-03T06:59:29.355Z,97.82
2023-02-03T07:00:29.647Z,97.82
2023-02-03T07:01:29.381Z,98.13
2023-02-03T07:02:29.361Z,97.82
2023-02-03T07:03:29.310Z,97.72
2023-02-03T07:04:29.309Z,97.62
2023-02-03T07:05:29.299Z,97.72
2023-02-03T07:06:29.259Z,98.03
2023-02-03T07:07:29.267Z,97.92
2023-02-03T07:08:29.239Z,97.82
2023-02-03T07:09:29.254Z,97.92
2023-02-03T07:10:29.571Z,98.03
2023-02-03T07:11:29.209Z,98.03
2023-02-03T07:12:29.233Z,98.03
2023-02-03T07:13:29.170Z,98.13
2023-02-03T07:14:29.167Z,98.24
2023-02-03T07:15:29.171Z,98.54
2023-02-03T07:16:29.135Z,98.75
2023-02-03T07:17:29.119Z,98.33
2023-02-03T07:18:46.792Z,98.44
2023-02-03T07:19:30.087Z,98.65
2023-02-03T07:20:29.636Z,98.85
2023-02-03T07:21:29.070Z,98.75
2023-02-03T07:22:29.062Z,98.85
2023-02-03T07:23:29.056Z,98.85
2023-02-03T07:24:29.053Z,98.85
2023-02-03T07:25:29.026Z,98.65
2023-02-03T07:26:29.024Z,98.44
2023-02-03T07:27:28.995Z,98.65
2023-02-03T07:28:28.978Z,98.44
2023-02-03T07:29:28.978Z,98.54
2023-02-03T07:30:29.315Z,98.65
2023-02-03T07:31:29.063Z,98.65
2023-02-03T07:32:28.934Z,98.85
2023-02-03T07:33:28.919Z,98.85
2023-02-03T07:34:28.913Z,98.65
2023-02-03T07:35:28.916Z,98.96
2023-02-03T07:36:28.875Z,98.96
2023-02-03T07:37:28.871Z,99.16
2023-02-03T07:38:28.869Z,99.26
2023-02-03T07:39:28.846Z,99.26
2023-02-03T07:40:29.088Z,98.96
2023-02-03T07:41:28.818Z,98.85
2023-02-03T07:42:28.793Z,99.05
2023-02-03T07:43:28.786Z,99.26
2023-02-03T07:44:28.825Z,99.16
2023-02-03T07:45:28.786Z,99.16
2023-02-03T07:46:28.754Z,99.26
2023-02-03T07:47:28.736Z,99.37
2023-02-03T07:48:28.804Z,98.96
2023-02-03T07:49:28.694Z,99.01
2023-02-03T07:50:29.155Z,99.05
2023-02-03T07:51:28.675Z,99.05
2023-02-03T07:52:28.705Z,99.26
2023-02-03T07:53:28.689Z,99.37
2023-02-03T07:54:28.644Z,99.16
2023-02-03T07:55:28.654Z,99.16
2023-02-03T07:56:28.625Z,99.01
2023-02-03T07:57:28.601Z,99.01
2023-02-03T07:58:28.590Z,99.21
2023-02-03T07:59:28.593Z,99.47
2023-02-03T08:00:28.957Z,99.67
2023-02-03T08:01:28.621Z,99.77
2023-02-03T08:02:28.544Z,99.77
2023-02-03T08:03:28.536Z,99.57
2023-02-03T08:04:28.544Z,99.77
2023-02-03T08:05:28.529Z,99.57
2023-02-03T08:06:28.492Z,99.67
2023-02-03T08:07:28.479Z,99.98
2023-02-03T08:08:28.466Z,99.88
2023-02-03T08:09:28.450Z,99.99
2023-02-03T08:10:28.849Z,99.99
2023-02-03T08:11:28.440Z,99.99
2023-02-03T08:12:28.430Z,99.99
2023-02-03T08:13:28.408Z,99.99
2023-02-03T08:14:28.396Z,99.99
2023-02-03T08:15:28.394Z,99.99
2023-02-03T08:16:28.474Z,99.99
2023-02-03T08:17:28.377Z,99.99
2023-02-03T08:18:29.340Z,99.99
2023-02-03T08:19:28.349Z,99.99
2023-02-03T08:20:28.710Z,99.99
2023-02-03T08:21:28.321Z,99.99
2023-02-03T08:22:28.292Z,99.99
2023-02-03T08:23:28.262Z,99.99
2023-02-03T08:24:28.259Z,99.99
2023-02-03T08:25:28.262Z,99.99
2023-02-03T08:26:28.240Z,99.99
2023-02-03T08:27:28.232Z,99.99
2023-02-03T08:28:28.224Z,99.99
2023-02-03T08:29:28.190Z,99.99
2023-02-03T08:30:28.592Z,99.99
2023-02-03T08:31:28.280Z,99.99
2023-02-03T08:32:28.157Z,99.99
2023-02-03T08:33:28.138Z,99.99
2023-02-03T08:34:28.138Z,99.99
2023-02-03T08:35:28.153Z,99.99
2023-02-03T08:36:28.098Z,99.99
2023-02-03T08:37:28.080Z,99.99
2023-02-03T08:38:28.106Z,99.99
2023-02-03T08:39:28.068Z,99.99
2023-02-03T08:40:28.492Z,99.99
2023-02-03T08:41:28.062Z,99.99
2023-02-03T08:42:28.035Z,99.99
2023-02-03T08:43:28.030Z,99.99
2023-02-03T08:44:28.021Z,99.99
2023-02-03T08:45:28.054Z,99.99
2023-02-03T08:46:27.989Z,99.93
2023-02-03T08:47:27.975Z,99.93
2023-02-03T08:48:27.957Z,99.93
2023-02-03T08:49:27.927Z,99.52
2023-02-03T08:50:28.312Z,99.52
2023-02-03T08:51:27.908Z,99.11
2023-02-03T08:52:27.924Z,99.21
2023-02-03T08:53:27.895Z,99.42
2023-02-03T08:54:27.892Z,99.63
2023-02-03T08:55:27.907Z,99.42
2023-02-03T08:56:27.864Z,99.42
2023-02-03T08:57:27.854Z,99.32
2023-02-03T08:58:27.824Z,99.32
2023-02-03T08:59:27.810Z,98.96
2023-02-03T09:00:28.420Z,99.17
2023-02-03T09:01:27.875Z,99.38
2023-02-03T09:02:27.787Z,99.27
2023-02-03T09:03:27.756Z,99.38
2023-02-03T09:04:27.786Z,99.07
2023-02-03T09:05:27.747Z,98.96
2023-02-03T09:06:27.739Z,98.86
2023-02-03T09:07:27.712Z,98.86
2023-02-03T09:08:27.707Z,98.76
2023-02-03T09:09:27.699Z,98.66
2023-02-03T09:10:28.052Z,98.66
2023-02-03T09:11:27.667Z,98.35
2023-02-03T09:12:27.649Z,98.25
2023-02-03T09:13:27.632Z,97.99
2023-02-03T09:14:27.627Z,98.30
2023-02-03T09:15:27.638Z,98.41
2023-02-03T09:16:27.698Z,98.66
2023-02-03T09:17:27.617Z,98.71
2023-02-03T09:18:27.568Z,98.82
2023-02-03T09:19:27.570Z,99.07
2023-02-03T09:20:28.084Z,98.86
2023-02-03T09:21:35.445Z,98.92
2023-02-03T09:22:28.543Z,98.92
2023-02-03T09:23:27.502Z,98.96
2023-02-03T09:24:28.190Z,99.07
2023-02-03T09:25:27.574Z,99.27
2023-02-03T09:26:27.463Z,99.27
2023-02-03T09:27:27.454Z,99.58
2023-02-03T09:28:27.443Z,99.43
2023-02-03T09:29:27.431Z,99.89
2023-02-03T09:30:27.870Z,99.99
2023-02-03T09:31:27.471Z,99.99
2023-02-03T09:32:27.430Z,99.99
2023-02-03T09:33:27.409Z,99.99
2023-02-03T09:34:27.357Z,99.99
2023-02-03T09:35:27.368Z,99.99
2023-02-03T09:36:27.386Z,99.99
2023-02-03T09:37:27.343Z,99.99
2023-02-03T09:38:27.342Z,99.99
2023-02-03T09:39:27.350Z,99.99
2023-02-03T09:40:27.624Z,99.99
2023-02-03T09:41:27.300Z,99.99
2023-02-03T09:42:27.282Z,99.99
2023-02-03T09:43:27.249Z,99.99
2023-02-03T09:44:27.259Z,99.99
2023-02-03T09:45:27.216Z,99.99
2023-02-03T09:46:27.294Z,99.99
2023-02-03T09:47:27.215Z,99.99
2023-02-03T09:48:27.205Z,99.99
2023-02-03T09:49:27.167Z,99.99
2023-02-03T09:50:27.543Z,99.99
2023-02-03T09:51:27.176Z,99.99
2023-02-03T09:52:27.138Z,99.99
2023-02-03T09:53:27.194Z,99.84
2023-02-03T09:54:27.137Z,99.63
2023-02-03T09:55:27.117Z,99.22
2023-02-03T09:56:27.157Z,98.92
2023-02-03T09:57:27.115Z,98.61
2023-02-03T09:58:27.123Z,98.71
2023-02-03T09:59:27.047Z,98.30
2023-02-03T10:00:27.275Z,98.25
2023-02-03T10:01:27.120Z,98.36
2023-02-03T10:02:27.095Z,98.25
2023-02-03T10:03:26.993Z,98.46
2023-02-03T10:04:27.001Z,98.67
2023-02-03T10:05:26.982Z,99.33
2023-02-03T10:06:27.006Z,99.22
2023-02-03T10:07:27.702Z,99.54
2023-02-03T10:08:26.943Z,99.33
2023-02-03T10:09:26.937Z,99.43
2023-02-03T10:10:27.268Z,99.33
2023-02-03T10:11:26.916Z,99.33
2023-02-03T10:12:26.886Z,99.63
2023-02-03T10:13:26.881Z,99.33
2023-02-03T10:14:26.857Z,99.63
2023-02-03T10:15:26.841Z,99.74
2023-02-03T10:16:26.870Z,99.95
2023-02-03T10:17:26.831Z,99.99
2023-02-03T10:18:26.827Z,99.99
2023-02-03T10:19:26.794Z,99.95
2023-02-03T10:20:27.185Z,99.95
2023-02-03T10:21:26.783Z,99.99
2023-02-03T10:22:26.744Z,99.99
2023-02-03T10:23:26.768Z,99.99
2023-02-03T10:24:26.724Z,99.99
2023-02-03T10:25:26.704Z,99.95
2023-02-03T10:26:26.703Z,99.74
2023-02-03T10:27:26.717Z,99.63
2023-02-03T10:28:26.701Z,99.74
2023-02-03T10:29:26.686Z,99.84
2023-02-03T10:30:27.000Z,99.74
2023-02-03T10:31:26.916Z,99.74
2023-02-03T10:32:26.649Z,99.74
2023-02-03T10:33:26.626Z,99.74
2023-02-03T10:34:26.603Z,99.33
2023-02-03T10:35:26.613Z,98.92
2023-02-03T10:36:26.582Z,99.02
2023-02-03T10:37:29.040Z,98.71
2023-02-03T10:38:26.585Z,98.61
2023-02-03T10:39:26.548Z,98.61
2023-02-03T10:40:26.901Z,98.77
2023-02-03T10:41:26.522Z,98.61
2023-02-03T10:42:26.489Z,98.71
2023-02-03T10:43:26.477Z,98.82
2023-02-03T10:44:26.472Z,98.92
2023-02-03T10:45:26.454Z,99.33
2023-02-03T10:46:26.508Z,99.43
2023-02-03T10:47:26.499Z,99.63
2023-02-03T10:48:26.459Z,99.99
2023-02-03T10:49:26.421Z,99.99
2023-02-03T10:50:26.776Z,99.99
2023-02-03T10:51:26.421Z,99.99
2023-02-03T10:52:26.501Z,97.47
2023-02-03T10:53:26.374Z,95.87
2023-02-03T10:54:26.367Z,93.86
2023-02-03T10:55:26.379Z,93.24
2023-02-03T10:56:26.339Z,95.09
2023-02-03T10:57:26.319Z,94.58
2023-02-03T10:58:26.329Z,94.78
2023-02-03T10:59:26.327Z,94.58
2023-02-03T11:00:26.587Z,94.68
2023-02-03T11:01:26.315Z,94.07
2023-02-03T11:02:26.317Z,93.35
2023-02-03T11:03:26.236Z,93.61
2023-02-03T11:04:26.246Z,93.20
2023-02-03T11:05:26.256Z,93.61
2023-02-03T11:06:26.215Z,93.20
2023-02-03T11:07:26.189Z,92.79
2023-02-03T11:08:26.157Z,92.95
2023-02-03T11:09:26.164Z,91.82
2023-02-03T11:10:26.622Z,91.93
2023-02-03T11:11:26.145Z,91.93
2023-02-03T11:12:26.123Z,91.61
2023-02-03T11:13:26.109Z,91.99
2023-02-03T11:14:26.101Z,90.24
2023-02-03T11:15:26.439Z,90.44
2023-02-03T11:16:26.090Z,90.91
2023-02-03T11:17:26.060Z,89.72
2023-02-03T11:18:26.139Z,89.17
2023-02-03T11:19:26.032Z,88.76
2023-02-03T11:20:26.305Z,89.37
2023-02-03T11:21:26.009Z,89.48
2023-02-03T11:22:25.981Z,87.12
2023-02-03T11:23:25.988Z,87.12
2023-02-03T11:24:25.995Z,88.14
2023-02-03T11:25:26.004Z,86.91
2023-02-03T11:26:25.989Z,87.53
2023-02-03T11:27:25.929Z,87.63
2023-02-03T11:28:25.904Z,87.63
2023-02-03T11:29:25.897Z,87.12
2023-02-03T11:30:26.066Z,86.60
2023-02-03T11:31:26.001Z,86.71
2023-02-03T11:32:25.846Z,85.99
2023-02-03T11:33:25.974Z,85.68
2023-02-03T11:34:25.843Z,85.68
2023-02-03T11:35:25.832Z,85.38
2023-02-03T11:36:25.803Z,85.68
2023-02-03T11:37:25.790Z,85.58
2023-02-03T11:38:25.774Z,85.27
2023-02-03T11:39:25.771Z,85.06
2023-02-03T11:40:25.953Z,85.38
2023-02-03T11:41:25.791Z,84.96
2023-02-03T11:42:25.731Z,85.78
2023-02-03T11:43:25.708Z,85.78
2023-02-03T11:44:25.699Z,86.19
2023-02-03T11:45:25.691Z,85.06
2023-02-03T11:46:25.735Z,85.06
2023-02-03T11:47:25.659Z,85.38
2023-02-03T11:48:25.658Z,85.47
2023-02-03T11:49:25.654Z,86.25
2023-02-03T11:50:26.058Z,86.05
2023-02-03T11:51:25.647Z,85.85
2023-02-03T11:52:25.601Z,85.74
2023-02-03T11:53:25.590Z,85.95
2023-02-03T11:54:25.570Z,86.57
2023-02-03T11:55:25.564Z,85.85
2023-02-03T11:56:25.557Z,86.25
2023-02-03T11:57:25.534Z,86.15
2023-02-03T11:58:25.567Z,86.15
2023-02-03T11:59:25.531Z,85.95
2023-02-03T12:00:25.611Z,86.46
2023-02-03T12:01:25.515Z,86.46
2023-02-03T12:02:25.549Z,86.77
2023-02-03T12:03:25.462Z,86.77
2023-02-03T12:04:25.475Z,87.08
2023-02-03T12:05:25.453Z,87.49
2023-02-03T12:06:25.429Z,87.28
2023-02-03T12:07:25.409Z,87.38
2023-02-03T12:08:25.398Z,87.38
2023-02-03T12:09:25.372Z,87.49
2023-02-03T12:10:25.515Z,87.49
2023-02-03T12:11:25.426Z,86.36
2023-02-03T12:12:25.363Z,86.36
2023-02-03T12:13:25.401Z,86.66
2023-02-03T12:14:25.330Z,86.57
2023-02-03T12:15:25.312Z,87.08
2023-02-03T12:16:25.330Z,87.18
2023-02-03T12:17:25.315Z,86.87
2023-02-03T12:18:25.260Z,85.85
2023-02-03T12:19:25.270Z,85.30
2023-02-03T12:20:25.282Z,85.71
2023-02-03T12:21:25.253Z,86.11
2023-02-03T12:22:25.228Z,86.63
2023-02-03T12:23:25.212Z,87.18
2023-02-03T12:24:25.197Z,87.79
2023-02-03T12:25:25.173Z,88.62
2023-02-03T12:26:25.167Z,88.82
2023-02-03T12:27:25.139Z,89.64
2023-02-03T12:28:33.423Z,89.95
2023-02-03T12:29:26.137Z,89.95
2023-02-03T12:30:25.099Z,90.36
2023-02-03T12:31:25.228Z,90.87
2023-02-03T12:32:25.104Z,89.84
2023-02-03T12:33:25.075Z,90.26
2023-02-03T12:34:25.075Z,90.56
2023-02-03T12:35:25.037Z,90.05
2023-02-03T12:36:25.061Z,90.67
2023-02-03T12:37:25.026Z,90.36
2023-02-03T12:38:24.998Z,89.95
2023-02-03T12:39:24.998Z,88.72
2023-02-03T12:40:24.979Z,89.19
2023-02-03T12:41:24.956Z,87.96
2023-02-03T12:42:24.965Z,88.37
2023-02-03T12:43:24.927Z,88.06
2023-02-03T12:44:24.946Z,88.57
2023-02-03T12:45:24.914Z,85.30
2023-02-03T12:46:24.898Z,86.01
2023-02-03T12:47:24.919Z,84.27
2023-02-03T12:48:24.917Z,84.37
2023-02-03T12:49:24.868Z,83.86
2023-02-03T12:50:24.835Z,83.51
2023-02-03T12:51:24.846Z,82.49
2023-02-03T12:52:24.824Z,82.59